»·PEaware :: N7428R KTIW-KHQM

N7428R :: KTIW-KHQM

FLIGHT INFORMATION

Flight Status: Arrived
Operator: Privately registered:
United States
More flights under this callsign
Pilot: William K. (19718)
Aircraft: PIPER PA-28 CHEROKEE ARCHER
(P28A)
More flights by this aircraft type
Origin: KTIW Tacoma Narrows
United States
Destination: KHQM Bowerman
United States
More flights between these airports :: More routes between these airports
Route: +OLM HQM
File this flight plan on PilotEdge
Remarks:
Altitude:
(Current/Filed)
3,000ft
Speed:
(Current/Filed)
100kts
Departed: 18-Nov-20 06:31 PM
Arrived: 18-Nov-20 07:57 PM
Distance/Time
Traveled:
58nm/1:25
Distance/Time
To Go:
Arrived

Flight Plot

Page will automatically refresh every two minutes.

Flight plan parsing failed; only flown route is shown


Map Options




Map Legend


Flown Route
Filed Route
Departure Airport
Arrival Airport
Navaid (VOR, NDB)
Fix

Horizontal Profiles

Position Reports

Time Latitude Longitude Heading Altitude Ground
Speed
18-Nov-20 18:04 47.272439 -122.574682 275 293ft 0kts
18-Nov-20 18:05 47.272439 -122.574682 275 293ft 0kts
18-Nov-20 18:06 47.272439 -122.574682 275 293ft 0kts
18-Nov-20 18:07 47.272439 -122.574682 275 293ft 0kts
18-Nov-20 18:08 47.272439 -122.574682 275 293ft 0kts
18-Nov-20 18:09 47.272439 -122.574683 275 293ft 0kts
18-Nov-20 18:10 47.272439 -122.574683 275 293ft 0kts
18-Nov-20 18:11 47.272439 -122.574683 275 293ft 0kts
18-Nov-20 18:12 47.272439 -122.574683 275 293ft 0kts
18-Nov-20 18:13 47.272439 -122.574683 275 293ft 0kts
18-Nov-20 18:14 47.272439 -122.574683 275 293ft 0kts
18-Nov-20 18:15 47.272439 -122.574683 275 293ft 0kts
18-Nov-20 18:16 47.272439 -122.574683 275 293ft 0kts
18-Nov-20 18:17 47.272439 -122.574683 275 293ft 0kts
18-Nov-20 18:18 47.272439 -122.574683 275 293ft 0kts
18-Nov-20 18:19 47.272439 -122.574683 275 293ft 0kts
18-Nov-20 18:20 47.272439 -122.574683 275 293ft 0kts
18-Nov-20 18:22 47.272439 -122.574683 275 293ft 0kts
18-Nov-20 18:23 47.273296 -122.574801 2 292ft 13kts
18-Nov-20 18:24 47.274569 -122.575758 275 291ft 0kts
18-Nov-20 18:25 47.274569 -122.575758 275 291ft 0kts
18-Nov-20 18:26 47.274569 -122.575758 275 291ft 0kts
18-Nov-20 18:27 47.274569 -122.575758 275 291ft 0kts
18-Nov-20 18:28 47.274569 -122.575758 275 291ft 0kts
18-Nov-20 18:29 47.274569 -122.575758 275 291ft 0kts
18-Nov-20 18:30 47.274507 -122.576845 227 292ft 7kts
18-Nov-20 18:31 47.272856 -122.577204 187 295ft 46kts
18-Nov-20 18:32 47.256510 -122.579104 187 1122ft 60kts
18-Nov-20 18:33 47.243914 -122.594962 219 1960ft 59kts
18-Nov-20 18:34 47.231519 -122.610548 217 2731ft 58kts
18-Nov-20 18:35 47.218639 -122.624782 207 3495ft 57kts
18-Nov-20 18:36 47.205605 -122.638394 213 4273ft 57kts
18-Nov-20 18:37 47.192917 -122.653340 213 5035ft 56kts
18-Nov-20 18:37 47.182028 -122.665164 210 5648ft 55kts
18-Nov-20 18:39 47.167176 -122.682313 211 6055ft 68kts
18-Nov-20 18:39 47.151898 -122.695398 212 5992ft 82kts
18-Nov-20 18:41 47.131871 -122.720705 218 6059ft 79kts
18-Nov-20 18:41 47.117209 -122.737522 212 6088ft 79kts
18-Nov-20 18:43 47.095597 -122.761075 217 6004ft 84kts
18-Nov-20 18:43 47.080261 -122.779534 216 5978ft 83kts
18-Nov-20 18:44 47.062611 -122.801180 210 5987ft 81kts
18-Nov-20 18:46 47.040517 -122.823036 217 5974ft 82kts
18-Nov-20 18:46 47.025784 -122.841203 212 5974ft 81kts
18-Nov-20 18:47 47.007691 -122.861443 220 5982ft 81kts
18-Nov-20 18:48 46.989637 -122.880948 218 6002ft 80kts
18-Nov-20 18:49 46.987754 -122.916091 260 6010ft 88kts
18-Nov-20 18:50 46.990412 -122.952548 261 6017ft 88kts
18-Nov-20 18:51 46.991665 -122.988485 266 6033ft 89kts
18-Nov-20 18:52 46.992632 -123.024741 259 6048ft 87kts
18-Nov-20 18:53 46.989757 -123.059882 258 6059ft 86kts
18-Nov-20 18:54 46.991319 -123.096335 261 6071ft 87kts
18-Nov-20 18:55 46.989474 -123.133012 257 6049ft 87kts
18-Nov-20 18:56 46.986960 -123.169725 256 5874ft 88kts
18-Nov-20 18:57 46.986926 -123.203714 262 5911ft 79kts
18-Nov-20 18:58 46.987235 -123.234719 255 6057ft 73kts
18-Nov-20 18:59 46.984340 -123.265197 258 6139ft 76kts
18-Nov-20 19:00 46.983622 -123.297491 266 5887ft 76kts
18-Nov-20 19:01 46.986597 -123.329647 264 5141ft 77kts
18-Nov-20 19:02 46.984141 -123.360594 250 4438ft 75kts
18-Nov-20 19:03 46.978908 -123.391051 246 3980ft 74kts
18-Nov-20 19:04 46.972680 -123.418881 269 3879ft 70kts
18-Nov-20 19:05 46.985293 -123.441562 299 3617ft 74kts
18-Nov-20 19:06 46.999198 -123.468308 295 2904ft 89kts
18-Nov-20 19:07 47.014572 -123.499416 296 2354ft 83kts
18-Nov-20 19:08 47.021902 -123.527646 250 2293ft 63kts
18-Nov-20 19:09 47.019275 -123.552482 258 2294ft 56kts
18-Nov-20 19:10 47.017548 -123.576506 253 2208ft 55kts
18-Nov-20 19:11 47.014006 -123.599576 250 2196ft 55kts
18-Nov-20 19:12 47.009928 -123.623008 249 2280ft 56kts
18-Nov-20 19:13 47.004781 -123.648517 248 2278ft 70kts
18-Nov-20 19:14 47.001412 -123.682526 252 2154ft 85kts
18-Nov-20 19:15 46.997355 -123.719107 257 2127ft 85kts
18-Nov-20 19:16 46.992455 -123.754895 245 2155ft 82kts
18-Nov-20 19:17 46.989004 -123.790909 257 2022ft 88kts
18-Nov-20 19:18 46.984597 -123.824346 253 1526ft 71kts
18-Nov-20 19:19 46.981340 -123.853980 258 1238ft 68kts
18-Nov-20 19:20 46.977813 -123.882791 255 826ft 70kts
18-Nov-20 19:21 46.974406 -123.910749 255 296ft 66kts
18-Nov-20 19:22 46.970467 -123.937024 262 753ft 68kts
18-Nov-20 19:23 46.970309 -123.964731 249 1635ft 65kts
18-Nov-20 19:24 46.967195 -123.991195 247 2459ft 63kts
18-Nov-20 19:25 46.963478 -124.019764 248 2707ft 72kts
18-Nov-20 19:26 46.957215 -124.054995 252 2575ft 94kts
18-Nov-20 19:27 46.951106 -124.093261 251 2460ft 92kts
18-Nov-20 19:28 46.948243 -124.131108 262 2451ft 90kts
18-Nov-20 19:29 46.943644 -124.168143 250 2421ft 88kts
18-Nov-20 19:30 46.934502 -124.200451 209 2487ft 82kts
18-Nov-20 19:31 46.930855 -124.177853 28 2519ft 103kts
18-Nov-20 19:32 46.950714 -124.150231 73 2523ft 107kts
18-Nov-20 19:33 46.942067 -124.123488 212 2430ft 89kts
18-Nov-20 19:34 46.934093 -124.154848 248 2579ft 79kts
18-Nov-20 19:35 46.929003 -124.188694 250 2694ft 79kts
18-Nov-20 19:36 46.943445 -124.204334 51 2670ft 104kts
18-Nov-20 19:37 46.947360 -124.162769 92 2452ft 103kts
18-Nov-20 19:38 46.936386 -124.137568 220 2462ft 76kts
18-Nov-20 19:39 46.925161 -124.163509 236 2649ft 76kts
18-Nov-20 19:40 46.913481 -124.192612 236 2631ft 84kts
18-Nov-20 19:41 46.918010 -124.221526 0 2522ft 106kts
18-Nov-20 19:42 46.937631 -124.191151 67 2503ft 103kts
18-Nov-20 19:43 46.948700 -124.152776 76 2513ft 101kts
18-Nov-20 19:44 46.943799 -124.120882 190 2464ft 86kts
18-Nov-20 19:45 46.933703 -124.149761 254 2990ft 78kts
18-Nov-20 19:46 46.930786 -124.182045 240 2986ft 68kts
18-Nov-20 19:47 46.929940 -124.206784 340 3006ft 82kts
18-Nov-20 19:48 46.941131 -124.182283 86 3069ft 80kts
18-Nov-20 19:49 46.946763 -124.149907 75 3120ft 81kts
18-Nov-20 19:50 46.952964 -124.116942 81 2611ft 89kts
18-Nov-20 19:51 46.961187 -124.079080 73 1637ft 99kts
18-Nov-20 19:52 46.967284 -124.041898 76 771ft 91kts
18-Nov-20 19:53 46.967261 -124.010122 113 766ft 65kts
18-Nov-20 19:54 46.965845 -123.983296 92 646ft 68kts
18-Nov-20 19:55 46.968996 -123.955388 86 274ft 66kts
18-Nov-20 19:56 46.971033 -123.937834 80 16ft 22kts
18-Nov-20 19:57 46.972868 -123.933392 342 15ft 0kts
18-Nov-20 19:58 46.972868 -123.933392 342 15ft 0kts
18-Nov-20 19:59 46.972868 -123.933392 342 15ft 0kts
18-Nov-20 20:00 46.972868 -123.933392 342 15ft 0kts
18-Nov-20 20:01 46.972869 -123.933392 342 15ft 0kts
18-Nov-20 20:02 46.972869 -123.933392 342 15ft 0kts
18-Nov-20 20:03 46.972869 -123.933392 342 15ft 0kts
18-Nov-20 20:04 46.972704 -123.933579 181 15ft 0kts

Navigation Log

Ident Type
Flight plan parsing failed, navigation log unavailable